Hamilton, New Jersey
Current Conditions -  °F | °C
As of 7:53 PM on Thursday 27 Nov 2014 (Local Time) from KTTN Reporting Station
Clear Clear  
Wind Chill: -2°   Ceiling: Unl
Heat Index:   Visibility: 10mi
Dew Point: -3°   Wind: 6mph
Humidity: 78%   Direction: 280°W
Pressure: 30.07"   Gusts: NA
Location:  40.1953°N, 74.7126°W
Report Text: KTTN 280053Z 28005KT 10SM CLR 01/M03 A3007 RMK AO2 RAB02E08 SLP178 P0000 T00061028
Loading
Personal Weather Stations






























Interactive Weather Map New forecast layout! Learn more

10-Day Weather Forecast

Advertisements
Track Severe Weather on mobile